createdAt,value
2023-02-18T00:01:29.859Z,100.00
2023-02-18T00:03:58.894Z,100.00
2023-02-18T00:06:30.266Z,100.00
2023-02-18T00:08:59.544Z,100.00
2023-02-18T00:11:27.239Z,100.00
2023-02-18T00:13:56.613Z,100.00
2023-02-18T00:16:27.501Z,100.00
2023-02-18T00:19:00.664Z,100.00
2023-02-18T00:21:31.130Z,100.00
2023-02-18T00:23:58.719Z,100.00
2023-02-18T00:26:30.667Z,100.00
2023-02-18T00:28:58.439Z,100.00
2023-02-18T00:31:33.097Z,100.00
2023-02-18T00:34:02.270Z,100.00
2023-02-18T00:36:30.261Z,100.00
2023-02-18T00:39:00.575Z,100.00
2023-02-18T00:41:29.668Z,100.00
2023-02-18T00:43:57.615Z,100.00
2023-02-18T00:46:25.850Z,100.00
2023-02-18T00:48:54.455Z,100.00
2023-02-18T00:51:22.629Z,100.00
2023-02-18T00:53:51.792Z,100.00
2023-02-18T00:56:20.470Z,100.00
2023-02-18T00:58:50.462Z,100.00
2023-02-18T01:01:18.806Z,100.00
2023-02-18T01:03:46.963Z,100.00
2023-02-18T01:06:15.443Z,100.00
2023-02-18T01:08:43.224Z,100.00
2023-02-18T01:11:12.821Z,100.00
2023-02-18T01:13:41.316Z,100.00
2023-02-18T01:16:10.295Z,100.00
2023-02-18T01:18:38.254Z,100.00
2023-02-18T01:21:08.895Z,100.00
2023-02-18T01:23:40.730Z,100.00
2023-02-18T01:26:09.150Z,100.00
2023-02-18T01:28:38.366Z,100.00
2023-02-18T01:31:10.527Z,100.00
2023-02-18T01:33:40.654Z,100.00
2023-02-18T01:36:09.325Z,100.00
2023-02-18T01:38:37.770Z,100.00
2023-02-18T01:41:05.134Z,100.00
2023-02-18T01:43:33.081Z,100.00
2023-02-18T01:46:22.286Z,100.00
2023-02-18T01:48:58.133Z,100.00
2023-02-18T01:51:32.672Z,100.00
2023-02-18T01:54:02.965Z,100.00
2023-02-18T01:56:41.333Z,100.00
2023-02-18T01:59:14.279Z,100.00
2023-02-18T02:01:44.878Z,100.00
2023-02-18T02:04:13.110Z,100.00
2023-02-18T02:06:42.915Z,100.00
2023-02-18T02:09:13.840Z,100.00
2023-02-18T02:12:02.981Z,100.00
2023-02-18T02:15:05.940Z,100.00
2023-02-18T02:17:38.607Z,100.00
2023-02-18T02:20:39.848Z,100.00
2023-02-18T02:23:18.363Z,100.00
2023-02-18T02:26:00.668Z,100.00
2023-02-18T02:29:07.129Z,100.00
2023-02-18T02:31:59.103Z,100.00
2023-02-18T02:34:38.359Z,100.00
2023-02-18T02:37:08.174Z,100.00
2023-02-18T02:40:02.984Z,100.00
2023-02-18T02:42:35.605Z,100.00
2023-02-18T02:45:29.771Z,100.00
2023-02-18T02:48:21.616Z,100.00
2023-02-18T02:51:13.253Z,100.00
2023-02-18T02:53:43.765Z,100.00
2023-02-18T02:56:20.274Z,100.00
2023-02-18T02:58:58.492Z,100.00
2023-02-18T03:01:56.761Z,100.00
2023-02-18T03:05:02.824Z,100.00
2023-02-18T03:07:36.191Z,100.00
2023-02-18T03:10:54.810Z,100.00
2023-02-18T03:13:50.842Z,100.00
2023-02-18T03:16:39.306Z,100.00
2023-02-18T03:19:10.602Z,100.00
2023-02-18T03:21:38.289Z,100.00
2023-02-18T03:24:21.984Z,100.00
2023-02-18T03:26:59.516Z,100.00
2023-02-18T03:29:28.094Z,100.00
2023-02-18T03:32:00.711Z,100.00
2023-02-18T03:34:41.381Z,100.00
2023-02-18T03:37:10.803Z,100.00
2023-02-18T03:39:41.003Z,100.00
2023-02-18T03:42:08.510Z,100.00
2023-02-18T03:44:35.796Z,100.00
2023-02-18T03:47:03.759Z,100.00
2023-02-18T03:49:31.081Z,100.00
2023-02-18T03:51:59.650Z,100.00
2023-02-18T03:54:26.960Z,100.00
2023-02-18T03:56:55.258Z,100.00
2023-02-18T03:59:22.430Z,100.00
2023-02-18T04:01:49.801Z,100.00
2023-02-18T04:04:17.321Z,100.00
2023-02-18T04:06:44.628Z,100.00
2023-02-18T04:09:11.899Z,100.00
2023-02-18T04:11:40.400Z,100.00
2023-02-18T04:14:08.940Z,100.00
2023-02-18T04:16:36.310Z,100.00
2023-02-18T04:19:03.481Z,100.00
2023-02-18T04:21:30.845Z,100.00
2023-02-18T04:23:58.018Z,100.00
2023-02-18T04:26:25.605Z,100.00
2023-02-18T04:28:54.022Z,100.00
2023-02-18T04:31:21.309Z,100.00
2023-02-18T04:33:48.522Z,100.00
2023-02-18T04:36:15.545Z,100.00
2023-02-18T04:38:43.283Z,100.00
2023-02-18T04:41:10.379Z,100.00
2023-02-18T04:43:38.150Z,100.00
2023-02-18T04:46:05.589Z,100.00
2023-02-18T04:48:33.404Z,100.00
2023-02-18T04:51:01.080Z,100.00
2023-02-18T04:53:28.507Z,100.00
2023-02-18T04:55:55.931Z,100.00
2023-02-18T04:58:23.882Z,100.00
2023-02-18T05:00:51.694Z,100.00
2023-02-18T05:03:19.614Z,100.00
2023-02-18T05:05:47.928Z,100.00
2023-02-18T05:08:17.474Z,100.00
2023-02-18T05:10:46.580Z,100.00
2023-02-18T05:13:15.034Z,100.00
2023-02-18T05:15:43.187Z,100.00
2023-02-18T05:18:10.826Z,100.00
2023-02-18T05:20:38.366Z,100.00
2023-02-18T05:23:05.914Z,100.00
2023-02-18T05:25:34.373Z,100.00
2023-02-18T05:28:02.323Z,100.00
2023-02-18T05:30:31.093Z,100.00
2023-02-18T05:33:01.588Z,100.00
2023-02-18T05:35:29.962Z,100.00
2023-02-18T05:37:58.204Z,100.00
2023-02-18T05:40:26.653Z,100.00
2023-02-18T05:42:54.448Z,100.00
2023-02-18T05:45:22.936Z,100.00
2023-02-18T05:47:52.168Z,100.00
2023-02-18T05:50:19.514Z,100.00
2023-02-18T05:52:47.394Z,100.00
2023-02-18T05:55:17.201Z,100.00
2023-02-18T05:57:46.319Z,100.00
2023-02-18T06:00:15.033Z,100.00
2023-02-18T06:02:43.982Z,100.00
2023-02-18T06:05:11.977Z,100.00
2023-02-18T06:07:39.926Z,100.00
2023-02-18T06:10:08.014Z,100.00
2023-02-18T06:12:35.571Z,100.00
2023-02-18T06:15:03.172Z,100.00
2023-02-18T06:17:30.475Z,100.00
2023-02-18T06:19:57.930Z,100.00
2023-02-18T06:22:25.568Z,100.00
2023-02-18T06:24:52.971Z,100.00
2023-02-18T06:27:22.500Z,100.00
2023-02-18T06:29:49.790Z,100.00
2023-02-18T06:32:17.560Z,100.00
2023-02-18T06:34:45.076Z,100.00
2023-02-18T06:37:16.738Z,100.00
2023-02-18T06:39:44.754Z,100.00
2023-02-18T06:42:12.671Z,100.00
2023-02-18T06:44:39.785Z,100.00
2023-02-18T06:47:07.855Z,100.00
2023-02-18T06:49:36.898Z,100.00
2023-02-18T06:52:04.719Z,100.00
2023-02-18T06:54:32.568Z,100.00
2023-02-18T06:57:00.267Z,100.00
2023-02-18T06:59:28.863Z,100.00
2023-02-18T07:01:56.021Z,100.00
2023-02-18T07:04:27.048Z,100.00
2023-02-18T07:06:54.496Z,99.04
2023-02-18T07:09:21.870Z,99.65
2023-02-18T07:11:50.215Z,100.00
2023-02-18T07:14:17.928Z,100.00
2023-02-18T07:16:45.919Z,100.00
2023-02-18T07:19:15.294Z,100.00
2023-02-18T07:21:43.894Z,100.00
2023-02-18T07:24:11.240Z,100.00
2023-02-18T07:26:38.686Z,100.00
2023-02-18T07:29:07.983Z,100.00
2023-02-18T07:31:36.773Z,100.00
2023-02-18T07:34:06.088Z,100.00
2023-02-18T07:36:34.324Z,100.00
2023-02-18T07:39:02.797Z,100.00
2023-02-18T07:41:30.942Z,100.00
2023-02-18T07:43:59.598Z,100.00
2023-02-18T07:46:27.632Z,100.00
2023-02-18T07:48:57.259Z,100.00
2023-02-18T07:51:25.436Z,100.00
2023-02-18T07:53:53.716Z,100.00
2023-02-18T07:56:21.903Z,100.00
2023-02-18T07:58:49.476Z,100.00
2023-02-18T08:01:17.803Z,100.00
2023-02-18T08:03:45.954Z,99.15
2023-02-18T08:06:49.938Z,98.95
2023-02-18T08:09:19.845Z,96.99
2023-02-18T08:11:50.414Z,96.16
2023-02-18T08:14:18.621Z,94.54
2023-02-18T08:16:50.147Z,93.49
2023-02-18T08:19:20.416Z,94.37
2023-02-18T08:21:49.428Z,91.94
2023-02-18T08:24:18.011Z,91.58
2023-02-18T08:26:59.474Z,88.36
2023-02-18T08:29:29.983Z,85.78
2023-02-18T08:32:00.307Z,83.49
2023-02-18T08:34:28.721Z,82.52
2023-02-18T08:36:56.468Z,83.36
2023-02-18T08:39:24.375Z,83.57
2023-02-18T08:41:53.565Z,84.90
2023-02-18T08:44:22.403Z,85.78
2023-02-18T08:46:51.567Z,85.48
2023-02-18T08:49:21.721Z,84.66
2023-02-18T08:51:52.596Z,85.33
2023-02-18T08:54:22.260Z,85.83
2023-02-18T08:56:58.238Z,84.75
2023-02-18T08:59:27.777Z,84.13
2023-02-18T09:01:56.836Z,84.01
2023-02-18T09:04:26.656Z,83.62
2023-02-18T09:06:56.288Z,83.90
2023-02-18T09:09:26.630Z,82.70
2023-02-18T09:11:57.237Z,82.47
2023-02-18T09:14:26.304Z,82.29
2023-02-18T09:16:56.021Z,81.49
2023-02-18T09:19:25.876Z,81.32
2023-02-18T09:21:53.700Z,80.41
2023-02-18T09:24:21.776Z,79.52
2023-02-18T09:26:49.227Z,78.09
2023-02-18T09:29:16.975Z,78.22
2023-02-18T09:31:45.020Z,77.51
2023-02-18T09:34:13.860Z,76.95
2023-02-18T09:36:42.043Z,76.56
2023-02-18T09:39:13.468Z,75.38
2023-02-18T09:41:47.828Z,75.52
2023-02-18T09:44:17.714Z,74.09
2023-02-18T09:46:55.652Z,74.22
2023-02-18T09:49:27.486Z,74.06
2023-02-18T09:51:57.325Z,74.16
2023-02-18T09:54:25.219Z,72.88
2023-02-18T09:56:55.394Z,72.56
2023-02-18T09:59:25.626Z,71.79
2023-02-18T10:01:55.222Z,70.79
2023-02-18T10:04:30.499Z,72.45
2023-02-18T10:06:59.444Z,71.01
2023-02-18T10:09:34.810Z,69.20
2023-02-18T10:12:17.438Z,66.96
2023-02-18T10:14:52.133Z,66.10
2023-02-18T10:17:21.319Z,62.87
2023-02-18T10:19:50.377Z,61.95
2023-02-18T10:22:19.470Z,62.68
2023-02-18T10:24:58.789Z,63.05
2023-02-18T10:27:29.678Z,63.00
2023-02-18T10:30:03.168Z,64.77
2023-02-18T10:32:38.757Z,63.28
2023-02-18T10:35:24.512Z,61.37
2023-02-18T10:38:34.655Z,61.83
2023-02-18T10:41:05.503Z,62.40
2023-02-18T10:43:41.443Z,61.41
2023-02-18T10:46:34.749Z,62.54
2023-02-18T10:49:39.554Z,62.17
2023-02-18T10:52:07.574Z,63.00
2023-02-18T10:54:51.136Z,60.83
2023-02-18T10:57:25.091Z,61.83
2023-02-18T11:00:00.368Z,62.90
2023-02-18T11:02:32.870Z,62.56
2023-02-18T11:05:21.319Z,63.22
2023-02-18T11:07:55.551Z,63.07
2023-02-18T11:10:29.943Z,64.00
2023-02-18T11:13:02.836Z,64.70
2023-02-18T11:15:31.196Z,64.03
2023-02-18T11:18:26.791Z,64.31
2023-02-18T11:21:01.182Z,63.00
2023-02-18T11:23:28.879Z,62.44
2023-02-18T11:26:04.298Z,62.45
2023-02-18T11:28:51.823Z,63.36
2023-02-18T11:31:30.294Z,61.92
2023-02-18T11:34:01.144Z,61.89
2023-02-18T11:36:39.131Z,62.31
2023-02-18T11:39:18.800Z,62.02
2023-02-18T11:41:53.811Z,61.41
2023-02-18T11:44:48.708Z,62.03
2023-02-18T11:47:16.883Z,61.87
2023-02-18T11:50:19.928Z,62.57
2023-02-18T11:52:49.689Z,63.06
2023-02-18T11:55:19.308Z,61.58
2023-02-18T11:57:56.901Z,61.91
2023-02-18T12:00:49.641Z,61.95
2023-02-18T12:03:49.120Z,61.28
2023-02-18T12:06:24.099Z,57.74
2023-02-18T12:09:32.803Z,58.06
2023-02-18T12:12:07.183Z,58.39
2023-02-18T12:14:37.156Z,59.26
2023-02-18T12:17:25.023Z,59.24
2023-02-18T12:20:14.371Z,58.90
2023-02-18T12:22:57.049Z,60.76
2023-02-18T12:25:28.930Z,60.08
2023-02-18T12:28:02.201Z,61.70
2023-02-18T12:30:48.477Z,61.17
2023-02-18T12:33:37.314Z,60.75
2023-02-18T12:36:18.028Z,60.57
2023-02-18T12:39:10.647Z,60.33
2023-02-18T12:41:43.923Z,60.86
2023-02-18T12:44:18.473Z,59.72
2023-02-18T12:47:21.092Z,60.22
2023-02-18T12:49:51.175Z,58.98
2023-02-18T12:52:58.208Z,58.18
2023-02-18T12:55:35.066Z,58.08
2023-02-18T12:58:05.152Z,58.69
2023-02-18T13:00:40.425Z,59.21
2023-02-18T13:03:31.072Z,59.57
2023-02-18T13:06:36.052Z,59.99
2023-02-18T13:09:44.364Z,60.63
2023-02-18T13:12:16.578Z,60.75
2023-02-18T13:15:03.692Z,61.12
2023-02-18T13:17:36.181Z,62.82
2023-02-18T13:20:07.442Z,63.00
2023-02-18T13:22:36.921Z,62.27
2023-02-18T13:25:04.299Z,63.08
2023-02-18T13:27:37.427Z,61.87
2023-02-18T13:30:16.977Z,62.95
2023-02-18T13:33:15.607Z,62.02
2023-02-18T13:35:54.972Z,63.09
2023-02-18T13:38:41.077Z,64.45
2023-02-18T13:41:09.495Z,64.35
2023-02-18T13:43:37.268Z,64.50
2023-02-18T13:46:22.442Z,65.08
2023-02-18T13:48:52.628Z,64.91
2023-02-18T13:51:39.339Z,64.74
2023-02-18T13:54:12.668Z,64.69
2023-02-18T13:56:55.247Z,65.50
2023-02-18T13:59:34.248Z,65.44
2023-02-18T14:02:30.737Z,65.45
2023-02-18T14:05:20.208Z,66.52
2023-02-18T14:07:51.001Z,66.10
2023-02-18T14:10:21.347Z,66.50
2023-02-18T14:12:58.347Z,66.41
2023-02-18T14:15:25.927Z,66.72
2023-02-18T14:17:59.580Z,65.82
2023-02-18T14:20:39.173Z,66.95
2023-02-18T14:23:41.054Z,66.12
2023-02-18T14:26:14.684Z,67.05
2023-02-18T14:28:48.069Z,66.71
2023-02-18T14:31:16.163Z,67.15
2023-02-18T14:33:55.025Z,67.19
2023-02-18T14:36:45.448Z,66.99
2023-02-18T14:39:36.228Z,67.03
2023-02-18T14:42:33.707Z,66.73
2023-02-18T14:45:00.750Z,67.15
2023-02-18T14:48:09.008Z,67.36
2023-02-18T14:50:38.361Z,66.66
2023-02-18T14:53:18.904Z,67.06
2023-02-18T14:55:50.212Z,67.19
2023-02-18T14:58:41.842Z,67.72
2023-02-18T15:01:20.914Z,67.84
2023-02-18T15:03:54.473Z,68.38
2023-02-18T15:06:38.794Z,67.90
2023-02-18T15:09:21.532Z,68.05
2023-02-18T15:12:09.776Z,68.80
2023-02-18T15:14:41.003Z,69.26
2023-02-18T15:17:17.148Z,70.00
2023-02-18T15:19:51.419Z,70.42
2023-02-18T15:22:22.645Z,71.19
2023-02-18T15:24:52.570Z,71.66
2023-02-18T15:27:24.351Z,71.73
2023-02-18T15:29:56.785Z,71.80
2023-02-18T15:32:29.304Z,72.21
2023-02-18T15:35:02.262Z,72.20
2023-02-18T15:37:30.810Z,72.17
2023-02-18T15:39:58.672Z,72.08
2023-02-18T15:42:26.325Z,72.38
2023-02-18T15:44:58.538Z,72.25
2023-02-18T15:47:26.148Z,72.46
2023-02-18T15:49:56.745Z,72.55
2023-02-18T15:52:38.821Z,72.41
2023-02-18T15:55:17.719Z,71.78
2023-02-18T15:57:44.998Z,71.88
2023-02-18T16:00:28.953Z,72.12
2023-02-18T16:03:13.895Z,71.75
2023-02-18T16:05:44.393Z,72.12
2023-02-18T16:08:32.943Z,71.77
2023-02-18T16:11:07.546Z,71.79
2023-02-18T16:13:36.868Z,71.80
2023-02-18T16:16:04.563Z,71.89
2023-02-18T16:18:37.562Z,72.89
2023-02-18T16:21:19.075Z,72.31
2023-02-18T16:23:59.657Z,72.83
2023-02-18T16:26:39.080Z,72.52
2023-02-18T16:29:17.890Z,73.11
2023-02-18T16:31:45.184Z,72.81
2023-02-18T16:34:12.866Z,72.50
2023-02-18T16:37:00.345Z,73.61
2023-02-18T16:39:31.376Z,74.37
2023-02-18T16:41:58.500Z,74.61
2023-02-18T16:44:25.470Z,75.77
2023-02-18T16:46:52.929Z,75.71
2023-02-18T16:49:20.525Z,76.10
2023-02-18T16:51:49.415Z,77.30
2023-02-18T16:54:16.542Z,77.33
2023-02-18T16:56:44.996Z,77.32
2023-02-18T16:59:12.191Z,77.08
2023-02-18T17:01:45.546Z,76.88
2023-02-18T17:04:15.997Z,77.07
2023-02-18T17:06:45.376Z,77.44
2023-02-18T17:09:21.590Z,76.39
2023-02-18T17:11:52.051Z,76.24
2023-02-18T17:14:22.531Z,76.16
2023-02-18T17:16:53.050Z,75.59
2023-02-18T17:19:21.611Z,75.84
2023-02-18T17:21:49.266Z,75.38
2023-02-18T17:24:19.084Z,75.54
2023-02-18T17:26:46.483Z,75.42
2023-02-18T17:29:14.538Z,75.09
2023-02-18T17:31:47.609Z,75.28
2023-02-18T17:34:36.690Z,75.13
2023-02-18T17:37:04.102Z,74.83
2023-02-18T17:39:31.704Z,75.30
2023-02-18T17:41:59.128Z,74.99
2023-02-18T17:44:26.514Z,75.43
2023-02-18T17:46:55.064Z,75.29
2023-02-18T17:49:23.508Z,74.79
2023-02-18T17:51:50.962Z,75.17
2023-02-18T17:54:20.295Z,74.88
2023-02-18T17:56:47.913Z,75.22
2023-02-18T17:59:14.923Z,75.04
2023-02-18T18:01:43.485Z,75.14
2023-02-18T18:04:15.778Z,75.42
2023-02-18T18:06:43.886Z,75.48
2023-02-18T18:09:11.335Z,75.75
2023-02-18T18:11:38.613Z,75.28
2023-02-18T18:14:05.916Z,75.25
2023-02-18T18:16:34.375Z,74.87
2023-02-18T18:19:01.521Z,74.89
2023-02-18T18:21:32.793Z,74.96
2023-02-18T18:24:00.306Z,75.02
2023-02-18T18:26:27.855Z,74.69
2023-02-18T18:28:55.291Z,75.09
2023-02-18T18:31:22.802Z,74.65
2023-02-18T18:33:53.595Z,74.46
2023-02-18T18:36:24.445Z,74.66
2023-02-18T18:38:52.214Z,74.64
2023-02-18T18:41:22.556Z,74.26
2023-02-18T18:43:50.031Z,74.29
2023-02-18T18:46:17.655Z,74.60
2023-02-18T18:48:45.821Z,74.23
2023-02-18T18:51:19.123Z,74.20
2023-02-18T18:53:46.690Z,73.76
2023-02-18T18:56:13.946Z,73.81
2023-02-18T18:58:44.106Z,73.64
2023-02-18T19:01:17.810Z,73.97
2023-02-18T19:03:47.262Z,72.84
2023-02-18T19:06:16.960Z,73.46
2023-02-18T19:08:45.778Z,72.29
2023-02-18T19:11:13.014Z,72.68
2023-02-18T19:13:41.148Z,72.08
2023-02-18T19:16:14.359Z,71.72
2023-02-18T19:18:41.765Z,71.78
2023-02-18T19:21:09.540Z,71.77
2023-02-18T19:23:37.582Z,70.50
2023-02-18T19:26:05.371Z,71.37
2023-02-18T19:28:32.933Z,71.09
2023-02-18T19:31:00.346Z,70.42
2023-02-18T19:33:28.110Z,71.21
2023-02-18T19:35:55.972Z,70.09
2023-02-18T19:38:23.409Z,70.25
2023-02-18T19:40:50.618Z,69.67
2023-02-18T19:43:20.231Z,70.01
2023-02-18T19:45:47.987Z,70.24
2023-02-18T19:48:16.187Z,70.79
2023-02-18T19:50:44.095Z,70.90
2023-02-18T19:53:11.955Z,71.25
2023-02-18T19:55:39.863Z,71.57
2023-02-18T19:58:07.558Z,71.88
2023-02-18T20:00:35.030Z,71.61
2023-02-18T20:03:02.287Z,71.65
2023-02-18T20:05:29.697Z,72.02
2023-02-18T20:07:57.010Z,72.91
2023-02-18T20:10:25.727Z,73.05
2023-02-18T20:12:54.679Z,73.29
2023-02-18T20:15:23.130Z,74.00
2023-02-18T20:17:51.373Z,74.35
2023-02-18T20:20:19.902Z,74.71
2023-02-18T20:22:48.304Z,74.75
2023-02-18T20:25:16.153Z,74.32
2023-02-18T20:27:58.461Z,75.48
2023-02-18T20:30:28.165Z,75.19
2023-02-18T20:32:56.026Z,75.63
2023-02-18T20:35:24.240Z,75.39
2023-02-18T20:37:52.032Z,75.95
2023-02-18T20:40:19.609Z,76.43
2023-02-18T20:42:47.105Z,76.27
2023-02-18T20:45:14.344Z,76.56
2023-02-18T20:47:41.965Z,77.02
2023-02-18T20:50:09.369Z,77.08
2023-02-18T20:52:36.684Z,76.34
2023-02-18T20:55:04.340Z,76.23
2023-02-18T20:57:32.503Z,76.70
2023-02-18T20:59:59.927Z,76.62
2023-02-18T21:02:28.270Z,76.82
2023-02-18T21:04:55.296Z,76.44
2023-02-18T21:07:22.925Z,76.42
2023-02-18T21:09:52.980Z,76.25
2023-02-18T21:12:20.272Z,76.49
2023-02-18T21:14:47.756Z,76.29
2023-02-18T21:17:15.007Z,76.04
2023-02-18T21:19:42.900Z,76.21
2023-02-18T21:22:10.041Z,76.36
2023-02-18T21:24:37.082Z,75.96
2023-02-18T21:27:04.181Z,76.30
2023-02-18T21:29:32.469Z,75.89
2023-02-18T21:31:59.630Z,76.10
2023-02-18T21:34:26.835Z,76.37
2023-02-18T21:36:54.056Z,76.24
2023-02-18T21:39:21.183Z,76.32
2023-02-18T21:41:48.245Z,76.55
2023-02-18T21:44:15.417Z,76.12
2023-02-18T21:46:42.657Z,76.79
2023-02-18T21:49:11.183Z,76.85
2023-02-18T21:51:58.253Z,76.30
2023-02-18T21:54:31.407Z,76.69
2023-02-18T21:56:59.946Z,76.02
2023-02-18T21:59:29.501Z,76.38
2023-02-18T22:02:00.573Z,76.85
2023-02-18T22:04:29.782Z,76.89
2023-02-18T22:06:57.480Z,77.03
2023-02-18T22:09:25.932Z,76.64
2023-02-18T22:11:53.761Z,76.97
2023-02-18T22:14:21.616Z,76.72
2023-02-18T22:16:49.111Z,76.94
2023-02-18T22:19:16.198Z,76.70
2023-02-18T22:21:43.340Z,76.28
2023-02-18T22:24:13.219Z,76.45
2023-02-18T22:26:41.568Z,76.79
2023-02-18T22:29:08.938Z,76.40
2023-02-18T22:31:36.246Z,76.04
2023-02-18T22:34:03.495Z,76.06
2023-02-18T22:36:31.753Z,76.05
2023-02-18T22:39:03.407Z,76.19
2023-02-18T22:41:33.434Z,75.97
2023-02-18T22:44:06.277Z,76.53
2023-02-18T22:46:33.999Z,76.29
2023-02-18T22:49:02.676Z,76.53
2023-02-18T22:51:37.957Z,76.38
2023-02-18T22:54:07.339Z,76.24
2023-02-18T22:56:34.564Z,75.46
2023-02-18T22:59:02.261Z,75.96
2023-02-18T23:01:32.878Z,75.40
2023-02-18T23:04:08.921Z,75.89
2023-02-18T23:06:37.167Z,76.00
2023-02-18T23:09:05.855Z,75.71
2023-02-18T23:11:33.399Z,75.60
2023-02-18T23:14:18.648Z,76.69
2023-02-18T23:17:06.117Z,76.33
2023-02-18T23:19:35.422Z,76.03
2023-02-18T23:22:03.108Z,76.43
2023-02-18T23:24:33.488Z,76.66
2023-02-18T23:27:00.964Z,76.59
2023-02-18T23:29:28.018Z,77.04
2023-02-18T23:31:55.521Z,76.35
2023-02-18T23:34:22.897Z,76.70
2023-02-18T23:36:53.234Z,76.78
2023-02-18T23:39:22.862Z,77.04
2023-02-18T23:41:51.368Z,77.43
2023-02-18T23:44:21.537Z,77.16
2023-02-18T23:46:49.013Z,77.45
2023-02-18T23:49:18.904Z,78.47
2023-02-18T23:51:45.973Z,78.18
2023-02-18T23:54:12.966Z,78.65
2023-02-18T23:56:40.495Z,78.46
2023-02-18T23:59:08.161Z,78.23
